Time;durP1;ratioP1;P1;durP2;ratioP2;P2;SDS_P1;SDS_P2;PMS_P1;PMS_P2;Temp;Humidity;BMP_temperature;BMP_pressure;BME280_temperature;BME280_humidity;BME280_pressure;Samples;Min_cycle;Max_cycle;Signal;HPM_P1;HPM_P2
2021/12/02 00:02:20;;;;;;;0.70;0.70;;;10.80;41.20;;;;;;10277514;28;20327;-78
2021/12/02 00:07:25;;;;;;;0.80;0.80;;;10.80;41.30;;;;;;10282976;28;20244;-77
2021/12/02 00:12:29;;;;;;;0.83;0.83;;;10.70;41.00;;;;;;10282414;28;20232;-77
2021/12/02 00:17:36;;;;;;;0.80;0.77;;;10.70;41.10;;;;;;10284174;28;20299;-77
2021/12/02 00:23:07;;;;;;;1.03;0.90;;;10.70;41.10;;;;;;10281128;28;20809;-77
2021/12/02 00:28:12;;;;;;;0.70;0.70;;;10.70;40.80;;;;;;10276999;28;20231;-78
2021/12/02 00:33:16;;;;;;;0.83;0.70;;;10.70;41.20;;;;;;10280650;28;20713;-77
2021/12/02 00:38:23;;;;;;;0.80;0.80;;;10.70;41.30;;;;;;10284059;28;20235;-77
2021/12/02 00:43:27;;;;;;;0.80;0.80;;;10.60;41.00;;;;;;10283592;28;20232;-77
2021/12/02 00:48:31;;;;;;;0.93;0.90;;;10.60;41.20;;;;;;10283424;28;20615;-77
2021/12/02 00:53:37;;;;;;;0.80;0.80;;;10.60;41.20;;;;;;10299332;28;20231;-77
2021/12/02 00:58:43;;;;;;;0.90;0.90;;;10.60;41.10;;;;;;10285717;28;20354;-78
2021/12/02 01:03:49;;;;;;;0.80;0.80;;;10.60;41.10;;;;;;10296846;28;20224;-77
2021/12/02 01:08:54;;;;;;;0.73;0.70;;;10.60;40.80;;;;;;10297035;28;20249;-77
2021/12/02 01:13:58;;;;;;;0.93;0.70;;;10.60;40.90;;;;;;10293677;28;20228;-78
2021/12/02 01:19:01;;;;;;;0.70;0.70;;;10.60;40.90;;;;;;10295204;28;20726;-78
2021/12/02 01:24:08;;;;;;;0.87;0.87;;;10.60;41.00;;;;;;10294210;28;20228;-77
2021/12/02 01:29:13;;;;;;;0.70;0.70;;;10.60;40.80;;;;;;10297970;28;20242;-77
2021/12/02 01:34:21;;;;;;;0.67;0.67;;;10.60;40.80;;;;;;10294165;28;20754;-77
2021/12/02 01:39:28;;;;;;;0.80;0.80;;;10.50;41.00;;;;;;10296209;28;20596;-78
2021/12/02 01:44:31;;;;;;;0.70;0.70;;;10.50;41.10;;;;;;10304902;28;20235;-77
2021/12/02 01:49:41;;;;;;;0.70;0.70;;;10.50;41.20;;;;;;10296386;28;20242;-78
2021/12/02 01:54:47;;;;;;;0.80;0.60;;;10.50;41.20;;;;;;10287985;28;20737;-78
2021/12/02 01:59:58;;;;;;;0.77;0.67;;;10.50;41.40;;;;;;10285521;28;20270;-78
2021/12/02 02:05:02;;;;;;;0.60;0.60;;;10.40;41.30;;;;;;10289873;28;20219;-78
2021/12/02 02:10:07;;;;;;;0.60;0.60;;;10.40;41.40;;;;;;10284900;28;20678;-77
2021/12/02 02:15:11;;;;;;;0.63;0.63;;;10.30;41.50;;;;;;10287599;28;20223;-77
2021/12/02 02:20:15;;;;;;;0.53;0.53;;;10.30;41.40;;;;;;10288385;28;20239;-77
2021/12/02 02:25:19;;;;;;;0.43;0.43;;;10.10;41.40;;;;;;10289322;28;20227;-77
2021/12/02 02:30:22;;;;;;;0.70;0.60;;;10.10;41.70;;;;;;10287494;28;20594;-77
2021/12/02 02:35:26;;;;;;;0.60;0.60;;;10.00;41.50;;;;;;10292293;28;20828;-78
2021/12/02 02:40:31;;;;;;;0.60;0.60;;;9.90;42.50;;;;;;10284679;28;20236;-77
2021/12/02 02:45:35;;;;;;;0.60;0.60;;;9.90;42.70;;;;;;10288490;28;20232;-78
2021/12/02 02:50:38;;;;;;;0.40;0.40;;;9.80;42.70;;;;;;10291668;28;20236;-77
2021/12/02 02:55:49;;;;;;;0.60;0.60;;;9.80;42.70;;;;;;10291115;28;20263;-78
2021/12/02 03:01:00;;;;;;;0.60;0.60;;;9.80;42.70;;;;;;10288628;28;20766;-78
2021/12/02 03:06:22;;;;;;;0.60;0.60;;;9.70;42.50;;;;;;10288602;28;20224;-78
2021/12/02 03:11:38;;;;;;;0.57;0.53;;;9.70;42.40;;;;;;10286297;28;20990;-77
2021/12/02 03:16:47;;;;;;;0.90;0.77;;;9.60;42.30;;;;;;10286415;28;20253;-78
2021/12/02 03:21:50;;;;;;;0.80;0.60;;;9.60;42.30;;;;;;10286975;28;20245;-78
2021/12/02 03:26:55;;;;;;;0.60;0.60;;;9.50;42.40;;;;;;10294707;23;20240;-71
2021/12/02 03:31:58;;;;;;;2.43;1.33;;;9.40;42.40;;;;;;10376629;28;20604;-71
2021/12/02 03:37:01;;;;;;;2.20;0.90;;;9.40;42.30;;;;;;10381108;28;20238;-71
2021/12/02 03:42:07;;;;;;;0.90;0.70;;;9.40;42.30;;;;;;10377265;28;20603;-74
2021/12/02 03:47:10;;;;;;;1.67;0.90;;;9.40;42.30;;;;;;10377468;28;20232;-74
2021/12/02 03:52:13;;;;;;;1.77;1.10;;;9.30;42.40;;;;;;10378297;28;20845;-74
2021/12/02 03:57:18;;;;;;;1.10;0.97;;;9.30;42.40;;;;;;10380696;28;20253;-74
2021/12/02 04:02:21;;;;;;;1.23;0.90;;;9.30;42.40;;;;;;10381052;28;23115;-75
2021/12/02 04:07:26;;;;;;;0.80;0.80;;;9.20;42.40;;;;;;10385148;28;20245;-74
2021/12/02 04:12:34;;;;;;;0.70;0.70;;;9.20;42.40;;;;;;10378347;28;20233;-74
2021/12/02 04:17:43;;;;;;;0.60;0.60;;;9.10;42.60;;;;;;10382051;28;20240;-74
2021/12/02 04:22:47;;;;;;;0.50;0.50;;;9.10;42.70;;;;;;10379825;28;20230;-74
2021/12/02 04:27:53;;;;;;;0.57;0.57;;;9.10;42.70;;;;;;10376681;28;20580;-74
2021/12/02 04:32:56;;;;;;;0.80;0.80;;;9.10;42.80;;;;;;10378300;28;20238;-74
2021/12/02 04:37:59;;;;;;;1.30;1.10;;;9.00;42.70;;;;;;10375845;28;20630;-74
2021/12/02 04:43:04;;;;;;;1.00;0.90;;;9.00;42.70;;;;;;10377850;28;20221;-74
2021/12/02 04:48:08;;;;;;;1.23;0.90;;;9.00;42.70;;;;;;10381230;28;20230;-74
2021/12/02 04:53:11;;;;;;;1.90;1.20;;;8.90;42.80;;;;;;10384444;28;20222;-74
2021/12/02 04:58:15;;;;;;;0.90;0.90;;;9.00;42.70;;;;;;10380966;28;20234;-74
2021/12/02 05:03:19;;;;;;;1.70;1.27;;;8.90;42.50;;;;;;10379979;28;20236;-74
2021/12/02 05:08:22;;;;;;;1.27;0.80;;;8.90;42.40;;;;;;10383163;28;20237;-75
2021/12/02 05:13:27;;;;;;;1.10;1.00;;;8.90;42.50;;;;;;10375621;28;20234;-74
2021/12/02 05:18:30;;;;;;;1.33;1.00;;;8.90;42.50;;;;;;10378746;28;20245;-74
2021/12/02 05:23:33;;;;;;;1.10;1.00;;;8.90;42.50;;;;;;10380295;28;20230;-74
2021/12/02 05:28:38;;;;;;;1.93;1.60;;;8.90;42.30;;;;;;10378391;28;20248;-74
2021/12/02 05:33:41;;;;;;;1.30;1.20;;;8.90;42.40;;;;;;10376357;28;20230;-74
2021/12/02 05:38:44;;;;;;;1.30;0.97;;;8.80;42.40;;;;;;10374441;28;20245;-74
2021/12/02 05:43:49;;;;;;;1.07;0.90;;;8.80;42.40;;;;;;10382167;28;20609;-74
2021/12/02 05:48:52;;;;;;;1.90;1.00;;;8.80;42.50;;;;;;10374793;28;20230;-74
2021/12/02 05:53:55;;;;;;;2.80;2.23;;;8.70;42.50;;;;;;10377547;28;20657;-74
2021/12/02 05:59:00;;;;;;;2.00;1.80;;;8.70;42.60;;;;;;10380158;28;20241;-74
2021/12/02 06:04:03;;;;;;;2.33;1.23;;;8.60;43.40;;;;;;10382899;28;20241;-73
2021/12/02 06:09:07;;;;;;;1.37;1.27;;;8.60;42.60;;;;;;10382013;28;20240;-75
2021/12/02 06:14:13;;;;;;;1.40;1.10;;;8.60;42.50;;;;;;10381308;28;20229;-74
2021/12/02 06:19:16;;;;;;;1.40;1.30;;;8.60;42.50;;;;;;10381320;28;20234;-74
2021/12/02 06:24:27;;;;;;;3.60;1.60;;;8.60;42.60;;;;;;10385264;28;20233;-77
2021/12/02 06:29:32;;;;;;;2.30;1.60;;;8.60;42.80;;;;;;10384205;28;20317;-74
2021/12/02 06:34:35;;;;;;;2.00;1.50;;;8.60;42.80;;;;;;10382430;28;20727;-75
2021/12/02 06:39:38;;;;;;;1.03;1.00;;;8.60;42.80;;;;;;10383481;28;20245;-75
2021/12/02 06:44:43;;;;;;;1.20;1.10;;;8.50;42.80;;;;;;10380741;28;20570;-75
2021/12/02 06:49:46;;;;;;;1.27;1.17;;;8.40;43.00;;;;;;10385467;28;20237;-75
2021/12/02 06:54:49;;;;;;;1.50;1.27;;;8.40;43.00;;;;;;10385798;28;20227;-75
2021/12/02 06:59:53;;;;;;;2.53;1.43;;;8.30;43.00;;;;;;10379199;28;20586;-75
2021/12/02 07:04:58;;;;;;;1.47;1.30;;;8.20;43.10;;;;;;10382188;28;20232;-75
2021/12/02 07:10:02;;;;;;;1.73;1.63;;;8.10;43.10;;;;;;10384186;28;20233;-75
2021/12/02 07:15:13;;;;;;;2.23;1.70;;;8.00;43.00;;;;;;10381932;28;20238;-74
2021/12/02 07:20:17;;;;;;;3.37;2.10;;;8.00;43.40;;;;;;10384098;28;20236;-75
2021/12/02 07:25:20;;;;;;;2.50;2.13;;;7.90;43.40;;;;;;10380325;28;20236;-75
2021/12/02 07:30:25;;;;;;;3.63;1.80;;;7.80;43.60;;;;;;10380020;28;20249;-74
2021/12/02 07:35:28;;;;;;;1.70;1.60;;;7.70;43.60;;;;;;10379130;28;20305;-75
2021/12/02 07:40:34;;;;;;;1.50;1.40;;;7.70;43.60;;;;;;10379690;28;20237;-75
2021/12/02 07:45:39;;;;;;;2.37;2.00;;;7.70;43.80;;;;;;10380820;28;20234;-75
2021/12/02 07:50:42;;;;;;;2.13;1.97;;;7.80;43.90;;;;;;10382554;28;20265;-75
2021/12/02 07:55:47;;;;;;;1.70;1.60;;;7.90;43.80;;;;;;10379828;28;20222;-75
2021/12/02 08:00:52;;;;;;;1.93;1.70;;;7.90;44.50;;;;;;10379464;28;20585;-75
2021/12/02 08:05:56;;;;;;;1.97;1.47;;;8.00;43.90;;;;;;10378772;28;20229;-75
2021/12/02 08:10:59;;;;;;;1.70;1.60;;;8.10;43.80;;;;;;10380402;28;20771;-75
2021/12/02 08:16:05;;;;;;;1.47;1.37;;;8.10;43.80;;;;;;10382080;28;20230;-74
2021/12/02 08:21:08;;;;;;;3.17;2.23;;;8.10;43.90;;;;;;10377880;28;20233;-75
2021/12/02 08:26:16;;;;;;;1.60;1.50;;;8.10;43.90;;;;;;10380320;28;20596;-75
2021/12/02 08:31:20;;;;;;;1.40;1.30;;;8.20;43.90;;;;;;10379519;28;20237;-69
2021/12/02 08:36:28;;;;;;;1.50;1.20;;;8.20;44.00;;;;;;10376368;28;20699;-75
2021/12/02 08:41:32;;;;;;;1.93;1.37;;;8.20;44.00;;;;;;10381953;28;20318;-71
2021/12/02 08:46:36;;;;;;;1.43;1.30;;;8.20;44.00;;;;;;10378342;28;20230;-71
2021/12/02 08:51:41;;;;;;;1.17;1.13;;;8.30;44.20;;;;;;10376020;28;20312;-72
2021/12/02 08:56:44;;;;;;;1.30;1.20;;;8.40;44.30;;;;;;10381374;28;20230;-71
2021/12/02 09:01:49;;;;;;;1.57;1.40;;;8.50;44.20;;;;;;10378324;28;20936;-71
2021/12/02 09:06:52;;;;;;;1.73;1.63;;;8.60;44.30;;;;;;10377619;28;20376;-71
2021/12/02 09:11:57;;;;;;;2.07;1.87;;;8.60;44.00;;;;;;10377426;28;20582;-71
2021/12/02 09:17:01;;;;;;;1.87;1.40;;;8.70;44.10;;;;;;10382867;28;20303;-71
2021/12/02 09:22:05;;;;;;;1.77;1.50;;;8.80;43.90;;;;;;10380883;28;20222;-71
2021/12/02 09:27:08;;;;;;;1.40;1.30;;;8.80;43.80;;;;;;10383162;28;20245;-71
2021/12/02 09:32:13;;;;;;;1.23;1.13;;;8.90;43.90;;;;;;10386314;28;20380;-71
2021/12/02 09:37:16;;;;;;;2.07;1.57;;;9.00;43.90;;;;;;10386391;28;20233;-71
2021/12/02 09:42:21;;;;;;;1.70;1.60;;;9.10;43.80;;;;;;10386431;28;20232;-72
2021/12/02 09:47:31;;;;;;;1.23;1.00;;;9.10;43.70;;;;;;10382788;28;20234;-72
2021/12/02 09:52:37;;;;;;;2.37;2.00;;;9.10;43.50;;;;;;10387555;28;20238;-72
2021/12/02 09:57:44;;;;;;;3.80;3.10;;;9.20;43.60;;;;;;10385040;28;20225;-73
2021/12/02 10:02:55;;;;;;;2.80;2.53;;;9.20;43.60;;;;;;10380523;28;20743;-72
2021/12/02 10:08:03;;;;;;;3.30;2.80;;;9.30;43.50;;;;;;10388641;28;20765;-72
2021/12/02 10:13:18;;;;;;;3.37;3.07;;;9.40;43.30;;;;;;10384193;28;20241;-72
2021/12/02 10:18:36;;;;;;;1.73;1.63;;;9.40;43.20;;;;;;10379304;28;20230;-72
2021/12/02 10:23:46;;;;;;;2.37;1.40;;;9.30;43.20;;;;;;10385863;28;20230;-72
2021/12/02 10:28:52;;;;;;;1.70;1.30;;;9.30;43.10;;;;;;10380038;28;20244;-72
2021/12/02 10:33:58;;;;;;;1.50;1.40;;;9.30;43.10;;;;;;10383829;28;20232;-72
2021/12/02 10:39:07;;;;;;;1.23;1.13;;;9.40;43.20;;;;;;10382748;28;20245;-73
2021/12/02 10:44:19;;;;;;;1.43;1.33;;;9.40;43.10;;;;;;10384224;28;20238;-73
2021/12/02 10:49:26;;;;;;;1.57;1.30;;;9.40;43.20;;;;;;10386356;28;20579;-72
2021/12/02 10:54:33;;;;;;;2.23;1.33;;;9.40;43.80;;;;;;10384770;28;20256;-72
2021/12/02 10:59:44;;;;;;;1.40;1.30;;;9.40;43.10;;;;;;10381972;28;20260;-73
2021/12/02 11:04:49;;;;;;;1.60;1.50;;;9.50;42.90;;;;;;10381525;28;20241;-75
2021/12/02 11:09:54;;;;;;;1.63;1.30;;;9.50;43.10;;;;;;10380535;28;20320;-75
2021/12/02 11:15:07;;;;;;;1.27;1.10;;;9.50;43.10;;;;;;10381094;28;20236;-71
2021/12/02 11:20:16;;;;;;;1.20;1.10;;;9.60;43.20;;;;;;10379007;28;20241;-71
2021/12/02 11:25:20;;;;;;;1.03;0.80;;;9.60;43.40;;;;;;10383826;28;20240;-71
2021/12/02 11:30:25;;;;;;;0.90;0.90;;;9.60;43.20;;;;;;10381068;28;20242;-72
2021/12/02 11:35:34;;;;;;;1.43;1.20;;;9.60;43.10;;;;;;10385946;28;20236;-72
2021/12/02 11:40:40;;;;;;;1.70;1.17;;;9.70;42.90;;;;;;10380432;28;20337;-72
2021/12/02 11:45:47;;;;;;;2.80;1.23;;;9.70;42.90;;;;;;10385988;28;20233;-72
2021/12/02 11:50:54;;;;;;;1.20;1.10;;;9.70;42.70;;;;;;10387684;28;20268;-72
2021/12/02 11:56:00;;;;;;;1.90;1.53;;;9.80;42.60;;;;;;10385318;28;20237;-72
2021/12/02 12:01:06;;;;;;;1.00;1.00;;;9.90;42.70;;;;;;10381407;28;20619;-72
2021/12/02 12:06:23;;;;;;;1.87;1.00;;;9.90;42.30;;;;;;10381548;28;20233;-73
2021/12/02 12:11:28;;;;;;;1.40;1.17;;;10.00;41.00;;;;;;10373921;28;20276;-72
2021/12/02 12:16:34;;;;;;;1.47;1.00;;;10.00;41.00;;;;;;10366832;28;20238;-72
2021/12/02 12:21:40;;;;;;;1.20;1.10;;;10.00;40.90;;;;;;10371220;28;21200;-72
2021/12/02 12:26:46;;;;;;;0.93;0.90;;;10.10;40.60;;;;;;10374843;28;20624;-72
2021/12/02 12:32:39;;;;;;;0.97;0.90;;;10.20;40.90;;;;;;10370762;28;20712;-72
2021/12/02 12:37:56;;;;;;;1.07;0.90;;;10.30;40.20;;;;;;10362901;28;20221;-72
2021/12/02 12:43:33;;;;;;;1.40;1.20;;;10.40;39.80;;;;;;10362828;28;20230;-72
2021/12/02 12:48:36;;;;;;;1.83;1.00;;;10.50;39.40;;;;;;10365465;28;20229;-72
2021/12/02 12:53:43;;;;;;;1.43;1.03;;;10.40;40.10;;;;;;10363582;28;20246;-72
2021/12/02 12:59:02;;;;;;;1.90;1.20;;;10.40;39.00;;;;;;10373565;28;20273;-72
2021/12/02 13:04:11;;;;;;;0.93;0.90;;;10.40;38.90;;;;;;10375236;28;20236;-72
2021/12/02 13:09:40;;;;;;;2.07;1.20;;;10.40;38.80;;;;;;10386315;28;20241;-73
2021/12/02 13:14:44;;;;;;;1.27;0.97;;;10.40;38.60;;;;;;10391091;28;20232;-73
2021/12/02 13:19:59;;;;;;;1.17;0.80;;;10.50;39.70;;;;;;10385871;28;20858;-72
2021/12/02 13:25:24;;;;;;;1.27;0.83;;;10.50;38.40;;;;;;10386425;28;20255;-72
2021/12/02 13:30:28;;;;;;;1.07;1.00;;;10.50;34.40;;;;;;10383316;28;20231;-75
2021/12/02 13:35:31;;;;;;;0.90;0.90;;;10.50;38.70;;;;;;10381501;28;20253;-72
2021/12/02 13:40:37;;;;;;;1.23;0.63;;;10.40;38.60;;;;;;10383404;28;20759;-73
2021/12/02 13:45:40;;;;;;;0.50;0.50;;;10.40;38.00;;;;;;10386731;28;20245;-72
2021/12/02 13:50:47;;;;;;;0.57;0.57;;;9.80;37.70;;;;;;10385162;28;20762;-72
2021/12/02 13:55:53;;;;;;;0.50;0.50;;;9.10;38.40;;;;;;10385696;28;21975;-72
2021/12/02 14:00:59;;;;;;;1.97;1.00;;;8.40;39.50;;;;;;10385711;28;20253;-72
2021/12/02 14:06:04;;;;;;;0.60;0.60;;;7.90;39.80;;;;;;10390573;28;20288;-72
2021/12/02 14:11:09;;;;;;;0.50;0.50;;;7.50;40.50;;;;;;10385248;28;20284;-72
2021/12/02 14:16:12;;;;;;;0.60;0.60;;;7.20;41.20;;;;;;10385539;28;20226;-72
2021/12/02 14:21:16;;;;;;;0.60;0.60;;;7.00;41.10;;;;;;10392034;28;20238;-72
2021/12/02 14:26:24;;;;;;;1.47;0.50;;;6.80;41.50;;;;;;10384471;28;20724;-72
2021/12/02 14:31:30;;;;;;;0.60;0.60;;;6.80;41.90;;;;;;10383999;28;20774;-72
2021/12/02 14:36:41;;;;;;;0.60;0.60;;;6.90;41.80;;;;;;10380637;28;20230;-72
2021/12/02 14:41:48;;;;;;;1.10;1.10;;;7.00;42.00;;;;;;10383998;28;20245;-72
2021/12/02 14:46:52;;;;;;;3.40;3.10;;;7.10;41.90;;;;;;10383696;28;20305;-72
2021/12/02 14:51:59;;;;;;;9.87;8.97;;;7.10;41.40;;;;;;10381236;28;20229;-73
2021/12/02 14:57:05;;;;;;;2.40;2.20;;;7.10;41.40;;;;;;10378298;28;20234;-71
2021/12/02 15:02:10;;;;;;;3.23;2.73;;;6.90;41.40;;;;;;10389051;28;20312;-72
2021/12/02 15:07:16;;;;;;;2.40;2.20;;;6.80;42.00;;;;;;10383870;28;20340;-72
2021/12/02 15:12:24;;;;;;;6.90;5.17;;;6.80;42.00;;;;;;10374554;28;20227;-72
2021/12/02 15:17:37;;;;;;;9.90;8.77;;;6.70;42.00;;;;;;10376526;28;20244;-72
2021/12/02 15:22:41;;;;;;;2.20;1.90;;;6.70;42.10;;;;;;10380593;28;20232;-72
2021/12/02 15:28:09;;;;;;;1.60;1.50;;;6.80;41.80;;;;;;10374660;28;20237;-72
2021/12/02 15:33:15;;;;;;;1.50;1.40;;;6.70;42.50;;;;;;10379896;28;20226;-72
2021/12/02 15:38:19;;;;;;;1.40;1.30;;;6.70;42.10;;;;;;10376995;28;20257;-72
2021/12/02 15:43:26;;;;;;;1.40;1.30;;;6.70;42.00;;;;;;10376470;28;20248;-75
2021/12/02 15:48:30;;;;;;;1.77;1.67;;;6.80;42.30;;;;;;10381840;28;20269;-75
2021/12/02 15:53:33;;;;;;;1.33;1.33;;;6.80;42.00;;;;;;10384834;28;20244;-75
2021/12/02 15:58:38;;;;;;;2.00;1.90;;;6.80;42.20;;;;;;10381344;28;20603;-75
2021/12/02 16:03:44;;;;;;;4.50;3.93;;;6.90;42.40;;;;;;10380812;28;20239;-75
2021/12/02 16:09:00;;;;;;;3.43;3.13;;;6.90;42.10;;;;;;10382115;28;20225;-75
2021/12/02 16:14:05;;;;;;;1.87;1.77;;;6.90;42.30;;;;;;10380395;28;20232;-75
2021/12/02 16:19:10;;;;;;;1.57;1.47;;;6.90;42.30;;;;;;10379699;28;20230;-70
2021/12/02 16:24:13;;;;;;;1.80;1.70;;;6.90;42.50;;;;;;10380683;28;20237;-76
2021/12/02 16:29:17;;;;;;;4.10;3.63;;;6.90;42.30;;;;;;10383252;28;20248;-75
2021/12/02 16:34:21;;;;;;;3.73;3.27;;;7.00;42.50;;;;;;10380913;28;20222;-75
2021/12/02 16:40:03;;;;;;;3.73;3.43;;;6.90;42.30;;;;;;10385404;28;20233;-75
2021/12/02 16:45:11;;;;;;;2.73;2.53;;;7.00;42.90;;;;;;10374896;28;20232;-75
2021/12/02 16:50:17;;;;;;;2.00;1.90;;;7.00;42.70;;;;;;10376119;28;20260;-75
2021/12/02 16:55:22;;;;;;;7.80;7.00;;;7.00;42.50;;;;;;10376261;28;20233;-75
2021/12/02 17:00:30;;;;;;;4.20;3.90;;;7.10;42.50;;;;;;10374260;28;20238;-75
2021/12/02 17:05:53;;;;;;;5.87;4.80;;;7.10;42.60;;;;;;10377143;28;20229;-76
2021/12/02 17:10:58;;;;;;;2.50;2.30;;;7.10;42.50;;;;;;10375105;28;20245;-75
2021/12/02 17:16:02;;;;;;;2.37;2.17;;;7.10;42.50;;;;;;10381579;28;20218;-75
2021/12/02 17:21:06;;;;;;;3.83;2.93;;;7.10;43.20;;;;;;10378531;28;20774;-75
2021/12/02 17:26:09;;;;;;;3.10;2.90;;;7.10;42.40;;;;;;10378626;28;20241;-75
2021/12/02 17:31:14;;;;;;;2.70;2.50;;;7.10;42.40;;;;;;10380037;28;20234;-75
2021/12/02 17:36:18;;;;;;;2.00;1.90;;;7.20;42.60;;;;;;10377468;28;20222;-75
2021/12/02 17:41:22;;;;;;;2.27;2.07;;;7.20;42.60;;;;;;10378626;28;20660;-74
2021/12/02 17:46:29;;;;;;;2.30;2.20;;;7.20;42.60;;;;;;10381459;28;20646;-76
2021/12/02 17:51:38;;;;;;;2.90;2.60;;;7.20;42.60;;;;;;10382491;28;20238;-75
2021/12/02 17:56:44;;;;;;;2.80;2.60;;;7.20;42.30;;;;;;10382001;28;20747;-75
2021/12/02 18:01:49;;;;;;;2.90;2.73;;;7.20;42.40;;;;;;10387303;28;20312;-75
2021/12/02 18:06:53;;;;;;;3.40;3.10;;;7.20;42.50;;;;;;10382838;28;20329;-75
2021/12/02 18:11:56;;;;;;;4.00;3.23;;;7.10;42.30;;;;;;10387154;28;20662;-75
2021/12/02 18:17:00;;;;;;;3.20;3.00;;;7.10;42.40;;;;;;10387081;28;20750;-75
2021/12/02 18:22:04;;;;;;;3.13;2.93;;;7.00;42.50;;;;;;10386131;28;20684;-74
2021/12/02 18:27:08;;;;;;;3.40;3.10;;;7.00;42.60;;;;;;10386973;28;20233;-74
2021/12/02 18:32:12;;;;;;;4.50;4.10;;;7.00;42.70;;;;;;10387250;28;20230;-75
2021/12/02 18:37:17;;;;;;;3.30;3.00;;;7.00;42.70;;;;;;10383349;28;21207;-74
2021/12/02 18:42:22;;;;;;;4.07;3.77;;;7.00;42.50;;;;;;10381769;28;20238;-74
2021/12/02 18:47:27;;;;;;;5.70;5.30;;;6.90;42.50;;;;;;10384445;28;20239;-74
2021/12/02 18:52:31;;;;;;;5.33;4.83;;;6.90;42.70;;;;;;10382750;28;20317;-75
2021/12/02 18:57:35;;;;;;;4.17;3.87;;;6.90;42.70;;;;;;10380760;28;20234;-75
2021/12/02 19:02:40;;;;;;;4.13;3.73;;;6.90;42.70;;;;;;10387073;28;20225;-74
2021/12/02 19:29:42;;;;;;;4.80;4.37;;;6.70;42.70;;;;;;10372833;28;21226;-74
2021/12/02 19:34:48;;;;;;;4.33;4.03;;;6.60;42.70;;;;;;10376798;28;20230;-74
2021/12/02 19:39:51;;;;;;;3.80;3.50;;;6.50;43.20;;;;;;10367624;28;20237;-75
2021/12/02 19:44:57;;;;;;;3.80;3.50;;;6.40;43.00;;;;;;10372652;28;20231;-75
2021/12/02 19:50:02;;;;;;;5.83;5.33;;;6.40;42.90;;;;;;10367657;28;20236;-75
2021/12/02 19:55:07;;;;;;;5.23;4.73;;;6.40;43.20;;;;;;10370670;28;20321;-74
2021/12/02 20:00:13;;;;;;;4.43;4.03;;;6.40;43.20;;;;;;10372318;28;20814;-75
2021/12/02 20:05:18;;;;;;;3.80;3.50;;;6.40;43.20;;;;;;10365326;28;20233;-75
2021/12/02 20:10:22;;;;;;;3.70;3.40;;;6.40;43.20;;;;;;10357418;28;20329;-74
2021/12/02 20:15:36;;;;;;;3.97;3.67;;;6.40;43.10;;;;;;10353180;28;20615;-72
2021/12/02 20:20:41;;;;;;;4.17;3.87;;;6.30;43.20;;;;;;10359718;28;20268;-71
2021/12/02 20:25:45;;;;;;;4.77;4.30;;;6.40;43.60;;;;;;10357570;28;20242;-72
2021/12/02 20:30:51;;;;;;;4.73;4.33;;;6.40;43.40;;;;;;10360741;28;20905;-71
2021/12/02 20:35:55;;;;;;;6.83;6.23;;;6.40;43.40;;;;;;10377553;28;20260;-72
2021/12/02 20:40:59;;;;;;;5.33;4.87;;;6.50;43.70;;;;;;10388042;28;20238;-72
2021/12/02 20:46:06;;;;;;;4.87;4.47;;;6.60;43.60;;;;;;10385659;28;20230;-71
2021/12/02 20:51:15;;;;;;;4.23;3.93;;;6.60;43.70;;;;;;10382200;28;20236;-71
2021/12/02 20:56:21;;;;;;;4.83;4.43;;;6.70;43.60;;;;;;10383648;28;20229;-71
2021/12/02 21:01:24;;;;;;;4.60;4.13;;;6.70;43.10;;;;;;10378297;28;20237;-72
2021/12/02 21:06:29;;;;;;;5.17;4.77;;;6.70;43.00;;;;;;10376319;28;20242;-72
2021/12/02 21:11:32;;;;;;;5.10;4.70;;;6.60;42.90;;;;;;10378474;28;20717;-71
2021/12/02 21:16:37;;;;;;;5.17;4.77;;;6.60;43.00;;;;;;10381839;28;20736;-75
2021/12/02 21:21:42;;;;;;;5.03;4.63;;;6.50;43.00;;;;;;10380872;28;20290;-75
2021/12/02 21:26:45;;;;;;;5.53;5.13;;;6.50;43.40;;;;;;10374276;28;20230;-75
2021/12/02 21:31:52;;;;;;;5.50;5.00;;;6.50;43.20;;;;;;10362000;28;20226;-74
2021/12/02 21:36:59;;;;;;;5.40;5.00;;;6.50;43.30;;;;;;10365012;28;20313;-71
2021/12/02 21:42:04;;;;;;;5.50;5.10;;;6.50;43.30;;;;;;10373494;28;20237;-72
2021/12/02 21:47:07;;;;;;;5.90;5.43;;;6.40;43.20;;;;;;10375619;28;20230;-72
2021/12/02 21:52:12;;;;;;;6.10;5.60;;;6.40;43.20;;;;;;10408873;23;20229;-68
2021/12/02 21:57:22;;;;;;;5.27;4.77;;;6.30;43.20;;;;;;10394298;28;20602;-67
2021/12/02 22:02:25;;;;;;;5.43;4.93;;;6.30;43.10;;;;;;10385135;28;20244;-68
2021/12/02 22:07:29;;;;;;;5.93;5.47;;;6.30;43.10;;;;;;10356900;28;20321;-67
2021/12/02 22:12:33;;;;;;;5.63;5.20;;;6.30;43.20;;;;;;10353576;28;20234;-67
2021/12/02 22:17:36;;;;;;;5.80;5.30;;;6.30;43.20;;;;;;10355827;28;20225;-69
2021/12/02 22:22:41;;;;;;;6.63;6.03;;;6.20;43.20;;;;;;10364258;28;20738;-70
2021/12/02 22:27:45;;;;;;;7.07;6.37;;;6.00;43.30;;;;;;10362593;28;20242;-70
2021/12/02 22:32:51;;;;;;;6.90;6.30;;;6.20;43.20;;;;;;10363529;28;20230;-70
2021/12/02 22:37:56;;;;;;;7.17;6.47;;;6.10;43.20;;;;;;10363141;28;20230;-70
2021/12/02 22:43:01;;;;;;;8.17;6.60;;;6.10;43.40;;;;;;10364193;28;20809;-70
2021/12/02 22:48:08;;;;;;;7.97;7.17;;;6.00;43.50;;;;;;10362330;28;20226;-68
2021/12/02 22:53:13;;;;;;;8.03;7.30;;;6.00;43.30;;;;;;10358629;28;20234;-68
2021/12/02 22:58:18;;;;;;;8.40;6.97;;;6.00;43.40;;;;;;10363026;28;20248;-68
2021/12/02 23:03:22;;;;;;;9.07;7.50;;;5.90;43.40;;;;;;10359287;28;20529;-68
2021/12/02 23:08:28;;;;;;;9.03;7.83;;;5.90;43.30;;;;;;10362795;28;20570;-69
2021/12/02 23:13:35;;;;;;;8.77;7.70;;;5.90;43.50;;;;;;10361311;28;20601;-68
2021/12/02 23:18:38;;;;;;;10.00;7.63;;;5.80;43.40;;;;;;10361546;28;20237;-68
2021/12/02 23:23:44;;;;;;;9.30;8.40;;;5.80;43.40;;;;;;10361669;28;20543;-68
2021/12/02 23:28:49;;;;;;;7.97;7.27;;;5.60;43.30;;;;;;10360775;28;20238;-68
2021/12/02 23:33:56;;;;;;;8.27;7.47;;;5.80;43.40;;;;;;10360397;28;20242;-68
2021/12/02 23:39:02;;;;;;;8.87;8.03;;;5.70;43.30;;;;;;10358485;28;20230;-68
2021/12/02 23:44:05;;;;;;;8.47;7.67;;;5.70;43.30;;;;;;10362261;28;20233;-68
2021/12/02 23:49:08;;;;;;;7.67;6.97;;;5.70;43.10;;;;;;10361023;28;20227;-68
2021/12/02 23:54:13;;;;;;;8.17;7.37;;;5.70;43.20;;;;;;10358736;28;20230;-68
2021/12/02 23:59:16;;;;;;;8.00;7.20;;;5.70;43.30;;;;;;10362035;28;20234;-68
